Terminal Aerodrome Forecast
Issued by NWS Wilmington, OH

Current Version | Previous Version | Text Only | Print | Product List | Glossary Off
Versions: 1 2 3 4 5 6 7 8 9 10 11 12 13 14 15 16 17

000
FTUS41 KILN 171740
TAFCMH
TAF
KCMH 171740Z 1718/1818 21012KT P6SM VCSH SCT025 BKN035
     FM171900 22012G22KT P6SM -SHRA VCTS SCT025 BKN035CB
      TEMPO 1719/1722 4SM -TSRA BKN025CB
     FM172200 22009KT P6SM VCSH BKN035
     FM180800 23007KT 4SM BR BKN008
     FM181300 26010KT P6SM BKN015
     FM181700 27012G20KT P6SM BKN040=

USA.gov is the U.S. government's official web portal to all federal, state and local government web resources and services.